Time;durP1;ratioP1;P1;durP2;ratioP2;P2;SDS_P1;SDS_P2;PMS_P1;PMS_P2;Temp;Humidity;BMP_temperature;BMP_pressure;BME280_temperature;BME280_humidity;BME280_pressure;Samples;Min_cycle;Max_cycle;Signal;HPM_P1;HPM_P2
2023/10/19 00:01:15;;;;;;;5.15;2.58;;;15.30;99.90;;;;;;4953202;29;20453;-36
2023/10/19 00:03:44;;;;;;;3.58;2.25;;;15.20;99.90;;;;;;4953173;29;20027;-39
2023/10/19 00:06:11;;;;;;;6.18;2.70;;;15.20;99.90;;;;;;4953145;29;20030;-38
2023/10/19 00:08:43;;;;;;;5.35;2.40;;;15.20;99.90;;;;;;4953102;29;20492;-43
2023/10/19 00:11:10;;;;;;;7.13;2.40;;;15.30;99.90;;;;;;4953137;29;20023;-38
2023/10/19 00:13:39;;;;;;;5.70;2.67;;;15.20;99.90;;;;;;4952973;29;20027;-42
2023/10/19 00:16:22;;;;;;;3.83;2.28;;;15.20;99.90;;;;;;4953047;29;20121;-39
2023/10/19 00:18:49;;;;;;;5.25;2.47;;;15.20;99.90;;;;;;4953089;29;20131;-40
2023/10/19 00:21:24;;;;;;;5.07;2.55;;;15.20;99.90;;;;;;4953038;29;20545;-38
2023/10/19 00:24:03;;;;;;;8.20;2.67;;;15.30;99.90;;;;;;4953026;29;20062;-38
2023/10/19 00:26:30;;;;;;;4.55;2.55;;;15.20;99.90;;;;;;4952913;29;20058;-39
2023/10/19 00:28:56;;;;;;;4.70;2.42;;;15.30;99.90;;;;;;4953067;29;20062;-35
2023/10/19 00:31:22;;;;;;;5.00;2.65;;;15.30;99.90;;;;;;4955081;28;20102;-35
2023/10/19 00:33:51;;;;;;;4.80;2.33;;;15.20;99.90;;;;;;4956548;29;20062;-35
2023/10/19 00:36:20;;;;;;;3.72;2.10;;;15.20;99.90;;;;;;4956423;29;20559;-35
2023/10/19 00:41:22;;;;;;;4.28;2.40;;;15.20;99.90;;;;;;4956742;29;20024;-35
2023/10/19 00:43:49;;;;;;;6.72;2.65;;;15.20;99.90;;;;;;4956621;29;20425;-36
2023/10/19 00:48:49;;;;;;;5.40;2.10;;;15.20;99.90;;;;;;4956219;29;20035;-36
2023/10/19 00:54:09;;;;;;;4.10;1.98;;;15.20;99.90;;;;;;4956337;29;20110;-36
2023/10/19 00:56:36;;;;;;;3.92;2.10;;;15.30;99.90;;;;;;4956249;29;20434;-37
2023/10/19 00:59:14;;;;;;;4.63;2.22;;;15.20;99.90;;;;;;4956323;29;20034;-36
2023/10/19 01:01:45;;;;;;;3.92;2.03;;;15.20;99.90;;;;;;4956062;29;20027;-38
2023/10/19 01:04:20;;;;;;;4.20;2.13;;;15.30;99.90;;;;;;4956149;29;20034;-37
2023/10/19 01:07:00;;;;;;;3.60;2.25;;;15.20;99.90;;;;;;4956028;29;20023;-37
2023/10/19 01:09:34;;;;;;;3.28;2.28;;;15.30;99.90;;;;;;4956039;29;20401;-38
2023/10/19 01:12:05;;;;;;;5.03;2.17;;;15.20;99.90;;;;;;4956016;29;20110;-37
2023/10/19 01:14:32;;;;;;;4.22;2.10;;;15.30;99.90;;;;;;4956096;29;20039;-37
2023/10/19 01:16:58;;;;;;;2.50;1.88;;;15.30;99.90;;;;;;4955720;29;20019;-36
2023/10/19 01:19:27;;;;;;;2.90;2.10;;;15.20;99.90;;;;;;4955837;29;20054;-37
2023/10/19 01:21:59;;;;;;;2.78;2.17;;;15.20;99.90;;;;;;4955874;29;20025;-37
2023/10/19 01:24:39;;;;;;;2.88;1.90;;;15.30;99.90;;;;;;4955694;29;20059;-38
2023/10/19 01:27:08;;;;;;;4.05;2.30;;;15.30;99.90;;;;;;4955706;29;20110;-37
2023/10/19 01:29:34;;;;;;;5.22;2.05;;;15.20;99.90;;;;;;4955704;29;20035;-37
2023/10/19 01:32:07;;;;;;;2.72;2.05;;;15.20;99.90;;;;;;4955630;29;20496;-36
2023/10/19 01:34:36;;;;;;;3.17;2.15;;;15.20;99.90;;;;;;4955663;29;20216;-37
2023/10/19 01:37:04;;;;;;;3.08;1.90;;;15.20;99.90;;;;;;4938182;29;20111;-38
2023/10/19 01:39:37;;;;;;;3.08;2.13;;;15.20;99.90;;;;;;4955468;29;20460;-37
2023/10/19 01:42:08;;;;;;;4.07;2.15;;;15.20;99.90;;;;;;4980295;23;20045;-37
2023/10/19 01:44:35;;;;;;;4.78;1.80;;;15.20;99.90;;;;;;4974590;28;20417;-38
2023/10/19 01:47:01;;;;;;;3.58;1.88;;;15.20;99.90;;;;;;4974602;28;20029;-38
2023/10/19 01:49:28;;;;;;;3.03;1.98;;;15.20;99.90;;;;;;4974642;28;20026;-38
2023/10/19 01:51:54;;;;;;;2.88;1.83;;;15.20;99.90;;;;;;4974491;28;20502;-38
2023/10/19 01:54:26;;;;;;;2.65;2.00;;;15.20;99.90;;;;;;4973150;28;20043;-37
2023/10/19 01:56:56;;;;;;;4.13;1.90;;;15.20;99.90;;;;;;4974595;28;20023;-38
2023/10/19 01:59:27;;;;;;;2.83;1.73;;;15.20;99.90;;;;;;4974469;28;20490;-38
2023/10/19 02:01:57;;;;;;;2.65;1.90;;;15.20;99.90;;;;;;4974332;28;20495;-37
2023/10/19 02:04:24;;;;;;;3.67;1.80;;;15.20;99.90;;;;;;4974910;28;20113;-37
2023/10/19 02:06:52;;;;;;;3.80;2.05;;;15.20;99.90;;;;;;4974156;28;20037;-38
2023/10/19 02:09:26;;;;;;;3.55;1.90;;;15.20;99.90;;;;;;4974334;28;20488;-37
2023/10/19 02:11:56;;;;;;;2.67;1.85;;;15.20;99.90;;;;;;4974323;28;20031;-38
2023/10/19 02:14:21;;;;;;;3.25;1.70;;;15.20;99.90;;;;;;4974103;28;20131;-38
2023/10/19 02:16:52;;;;;;;4.97;1.70;;;15.20;99.90;;;;;;4973970;28;20027;-37
2023/10/19 02:19:21;;;;;;;8.80;2.40;;;15.20;99.90;;;;;;4974104;28;20026;-37
2023/10/19 02:21:52;;;;;;;5.00;1.70;;;15.20;99.90;;;;;;4973991;28;20054;-37
2023/10/19 02:24:18;;;;;;;3.70;1.80;;;15.20;99.90;;;;;;4974336;28;20030;-37
2023/10/19 02:26:46;;;;;;;5.35;1.80;;;15.20;99.90;;;;;;4973843;28;20538;-37
2023/10/19 02:29:13;;;;;;;2.20;1.70;;;15.20;99.90;;;;;;4973892;28;20123;-38
2023/10/19 02:31:40;;;;;;;2.95;1.70;;;15.20;99.90;;;;;;4973705;28;20023;-38
2023/10/19 02:34:11;;;;;;;3.15;1.75;;;15.20;99.90;;;;;;4973764;28;20080;-37
2023/10/19 02:36:38;;;;;;;4.22;1.90;;;15.20;99.90;;;;;;4973904;28;20031;-37
2023/10/19 02:39:09;;;;;;;3.13;1.70;;;15.20;99.90;;;;;;4973917;28;20388;-37
2023/10/19 02:41:36;;;;;;;3.92;1.60;;;15.20;99.90;;;;;;4973555;28;20376;-38
2023/10/19 02:46:43;;;;;;;4.53;1.80;;;15.20;99.90;;;;;;4973714;28;20034;-38
2023/10/19 02:49:11;;;;;;;4.82;1.83;;;15.20;99.90;;;;;;4973596;28;20026;-37
2023/10/19 02:51:45;;;;;;;3.47;1.65;;;15.20;99.90;;;;;;4973427;28;20026;-38
2023/10/19 02:54:24;;;;;;;1.83;1.58;;;15.20;99.90;;;;;;4973243;28;20038;-37
2023/10/19 02:56:56;;;;;;;3.63;1.75;;;15.10;99.90;;;;;;4973299;28;20023;-38
2023/10/19 02:59:23;;;;;;;2.53;1.70;;;15.20;99.90;;;;;;4973387;28;20161;-38
2023/10/19 03:01:50;;;;;;;1.92;1.30;;;15.10;99.90;;;;;;4973307;28;20259;-37
2023/10/19 03:04:17;;;;;;;2.83;2.03;;;15.20;99.90;;;;;;4973337;28;20026;-38
2023/10/19 03:06:43;;;;;;;3.15;1.80;;;15.20;99.90;;;;;;4973147;28;20030;-37
2023/10/19 03:11:55;;;;;;;2.75;1.67;;;15.20;99.90;;;;;;4973407;28;20031;-37
2023/10/19 03:14:24;;;;;;;3.65;1.92;;;15.20;99.90;;;;;;4973264;28;20030;-37
2023/10/19 03:16:50;;;;;;;1.85;1.30;;;15.20;99.90;;;;;;4972973;28;20035;-38
2023/10/19 03:19:16;;;;;;;4.35;1.65;;;15.10;99.90;;;;;;4973076;28;20102;-37
2023/10/19 03:21:48;;;;;;;2.25;1.55;;;15.10;99.90;;;;;;4972820;28;20022;-38
2023/10/19 03:24:23;;;;;;;2.15;1.30;;;15.20;99.90;;;;;;4972934;28;20098;-37
2023/10/19 03:26:50;;;;;;;2.20;1.40;;;15.10;99.90;;;;;;4972893;28;20058;-37
2023/10/19 03:29:22;;;;;;;4.70;1.77;;;15.10;99.90;;;;;;4973268;28;20109;-37
2023/10/19 03:31:48;;;;;;;3.78;2.15;;;15.20;99.90;;;;;;4972778;28;20498;-38
2023/10/19 03:34:16;;;;;;;1.77;1.48;;;15.10;99.90;;;;;;4972580;28;20034;-37
2023/10/19 03:36:42;;;;;;;3.80;1.60;;;15.20;99.90;;;;;;4972686;28;20448;-38
2023/10/19 03:39:17;;;;;;;1.85;1.48;;;15.20;99.90;;;;;;4972830;28;20530;-37
2023/10/19 03:41:44;;;;;;;2.85;1.50;;;15.20;99.90;;;;;;4972684;28;20035;-37
2023/10/19 03:49:38;;;;;;;2.97;1.80;;;15.10;99.90;;;;;;4973001;28;20444;-38
2023/10/19 03:54:40;;;;;;;2.88;1.73;;;15.10;99.90;;;;;;4972605;28;20022;-38
2023/10/19 03:57:19;;;;;;;1.90;1.50;;;15.10;99.90;;;;;;4972392;28;20050;-37
2023/10/19 03:59:49;;;;;;;1.85;1.30;;;15.10;99.90;;;;;;4972532;28;20400;-37
2023/10/19 04:02:21;;;;;;;2.88;1.60;;;15.10;99.90;;;;;;4972437;28;20019;-38
2023/10/19 04:04:52;;;;;;;2.70;1.50;;;15.10;99.90;;;;;;4972472;28;20090;-38
2023/10/19 04:07:21;;;;;;;2.42;1.60;;;15.10;99.90;;;;;;4976835;28;20074;-37
2023/10/19 04:12:24;;;;;;;2.97;1.60;;;15.10;99.90;;;;;;4976372;28;20384;-38
2023/10/19 04:14:49;;;;;;;2.47;1.63;;;15.10;99.90;;;;;;4976254;28;20035;-37
2023/10/19 04:17:17;;;;;;;2.05;1.45;;;15.10;99.90;;;;;;4976329;28;20070;-37
2023/10/19 04:19:43;;;;;;;3.33;1.60;;;15.10;99.90;;;;;;4976318;28;20094;-37
2023/10/19 04:22:21;;;;;;;5.65;1.50;;;15.10;99.90;;;;;;4976102;28;20031;-38
2023/10/19 04:24:47;;;;;;;2.65;1.30;;;15.10;99.90;;;;;;4976305;28;20403;-37
2023/10/19 04:27:12;;;;;;;1.83;1.45;;;15.10;99.90;;;;;;4976157;28;20027;-37
2023/10/19 04:29:40;;;;;;;2.10;1.33;;;15.10;99.90;;;;;;4976284;28;20074;-37
2023/10/19 04:32:07;;;;;;;3.03;1.67;;;15.10;99.90;;;;;;4976376;28;20495;-37
2023/10/19 04:34:32;;;;;;;3.15;1.70;;;15.10;99.90;;;;;;4974794;28;20031;-37
2023/10/19 04:36:58;;;;;;;1.90;1.60;;;15.10;99.90;;;;;;4975851;28;20078;-37
2023/10/19 04:39:24;;;;;;;2.08;1.67;;;15.10;99.90;;;;;;4976239;28;20062;-37
2023/10/19 04:41:50;;;;;;;1.92;1.55;;;15.10;99.90;;;;;;4975712;28;20046;-37
2023/10/19 04:44:16;;;;;;;2.63;1.60;;;15.10;99.90;;;;;;4975903;28;20604;-37
2023/10/19 04:46:42;;;;;;;3.40;1.67;;;15.10;99.90;;;;;;4974412;28;20094;-37
2023/10/19 04:49:08;;;;;;;1.92;1.38;;;15.00;99.90;;;;;;4975666;28;20069;-37
2023/10/19 04:51:38;;;;;;;2.42;1.60;;;15.10;99.90;;;;;;4975706;28;20026;-37
2023/10/19 04:54:04;;;;;;;2.08;1.55;;;15.10;99.90;;;;;;4975608;28;20038;-37
2023/10/19 04:56:30;;;;;;;3.10;1.73;;;15.10;99.90;;;;;;4975473;28;20041;-38
2023/10/19 04:58:55;;;;;;;2.08;1.42;;;15.10;99.90;;;;;;4975557;28;20027;-37
2023/10/19 05:01:21;;;;;;;2.05;1.30;;;15.10;99.90;;;;;;4975438;28;20034;-37
2023/10/19 05:03:47;;;;;;;2.47;1.60;;;15.00;99.90;;;;;;4975431;28;20027;-37
2023/10/19 05:06:13;;;;;;;6.60;1.70;;;15.10;99.90;;;;;;4975298;28;20089;-37
2023/10/19 05:08:39;;;;;;;1.58;1.38;;;15.00;99.90;;;;;;4975476;28;20121;-38
2023/10/19 05:11:05;;;;;;;4.13;1.70;;;15.00;99.90;;;;;;4975297;28;20031;-37
2023/10/19 05:13:32;;;;;;;4.22;1.30;;;15.00;99.90;;;;;;4975144;28;20400;-37
2023/10/19 05:15:58;;;;;;;3.25;1.60;;;15.00;99.90;;;;;;4975054;28;20098;-38
2023/10/19 05:18:25;;;;;;;3.05;1.55;;;15.00;99.90;;;;;;4975189;28;20034;-38
2023/10/19 05:20:55;;;;;;;6.68;1.75;;;15.00;99.90;;;;;;4975427;28;20110;-37
2023/10/19 05:23:24;;;;;;;2.85;1.55;;;15.10;99.90;;;;;;4975137;28;20090;-38
2023/10/19 05:25:52;;;;;;;2.17;1.60;;;15.00;99.90;;;;;;4975384;28;20503;-38
2023/10/19 05:28:18;;;;;;;2.78;1.77;;;15.10;99.90;;;;;;4975040;28;20050;-37
2023/10/19 05:30:44;;;;;;;1.63;1.40;;;15.00;99.90;;;;;;4974881;28;20042;-37
2023/10/19 05:33:10;;;;;;;1.75;1.27;;;15.00;99.90;;;;;;4975011;28;20491;-37
2023/10/19 05:35:40;;;;;;;3.72;1.40;;;15.00;99.90;;;;;;4973762;28;20054;-38
2023/10/19 05:38:09;;;;;;;1.95;1.40;;;15.10;99.90;;;;;;4975028;28;20089;-38
2023/10/19 05:40:35;;;;;;;3.30;1.35;;;15.10;99.90;;;;;;4974854;28;20057;-37
2023/10/19 05:43:02;;;;;;;2.47;1.30;;;15.10;99.90;;;;;;4974644;28;20492;-38
2023/10/19 05:45:28;;;;;;;5.72;1.38;;;15.10;99.90;;;;;;4974519;28;20514;-37
2023/10/19 05:47:57;;;;;;;2.25;1.60;;;15.00;99.90;;;;;;4974633;28;20023;-37
2023/10/19 05:50:23;;;;;;;1.50;1.30;;;15.00;99.90;;;;;;4974813;28;20089;-37
2023/10/19 05:52:48;;;;;;;3.40;1.50;;;15.10;99.90;;;;;;4974611;28;20031;-37
2023/10/19 05:55:14;;;;;;;3.35;1.70;;;15.10;99.90;;;;;;4974395;28;20026;-37
2023/10/19 05:57:40;;;;;;;1.58;1.38;;;15.00;99.90;;;;;;4974559;28;20114;-37
2023/10/19 06:00:13;;;;;;;2.22;1.70;;;15.00;99.90;;;;;;4973132;28;20109;-37
2023/10/19 06:02:46;;;;;;;3.15;1.50;;;15.00;99.90;;;;;;4974471;28;20027;-37
2023/10/19 06:05:16;;;;;;;2.25;1.38;;;15.00;99.90;;;;;;4974342;28;20027;-37
2023/10/19 06:07:43;;;;;;;1.70;1.42;;;15.10;99.90;;;;;;4974270;28;20019;-38
2023/10/19 06:10:15;;;;;;;3.28;1.50;;;15.00;99.90;;;;;;4974327;28;20536;-37
2023/10/19 06:12:41;;;;;;;3.95;1.67;;;15.00;99.90;;;;;;4974200;28;20023;-37
2023/10/19 06:15:07;;;;;;;1.80;1.30;;;15.10;99.90;;;;;;4974032;28;20033;-37
2023/10/19 06:17:33;;;;;;;3.90;1.40;;;15.00;99.90;;;;;;4974116;28;20074;-37
2023/10/19 06:20:00;;;;;;;2.38;1.50;;;15.00;99.90;;;;;;4974155;28;20023;-37
2023/10/19 06:22:25;;;;;;;1.60;1.30;;;15.00;99.90;;;;;;4973998;28;20031;-37
2023/10/19 06:24:52;;;;;;;2.00;1.30;;;15.10;99.90;;;;;;4974319;28;20468;-37
2023/10/19 06:27:17;;;;;;;4.03;1.40;;;15.10;99.90;;;;;;4973956;28;20037;-37
2023/10/19 06:29:44;;;;;;;2.38;1.25;;;15.10;99.90;;;;;;4973640;28;20388;-37
2023/10/19 06:32:09;;;;;;;2.42;1.65;;;15.10;99.90;;;;;;4973902;28;20026;-37
2023/10/19 06:34:35;;;;;;;2.63;1.60;;;15.00;99.90;;;;;;4973808;28;20113;-38
2023/10/19 06:37:03;;;;;;;2.47;1.70;;;15.00;99.90;;;;;;4973767;28;20506;-37
2023/10/19 06:39:29;;;;;;;3.05;1.70;;;15.10;99.90;;;;;;4973579;28;20050;-37
2023/10/19 06:41:54;;;;;;;2.17;1.60;;;15.10;99.90;;;;;;4973713;28;20074;-38
2023/10/19 06:44:22;;;;;;;2.15;1.50;;;15.10;99.90;;;;;;4973660;28;20034;-37
2023/10/19 06:46:47;;;;;;;2.25;1.55;;;15.10;99.90;;;;;;4973854;28;20109;-37
2023/10/19 06:49:15;;;;;;;1.63;1.38;;;15.10;99.90;;;;;;4973549;28;20109;-38
2023/10/19 06:51:40;;;;;;;2.25;1.52;;;15.10;99.90;;;;;;4973506;28;20031;-37
2023/10/19 06:54:08;;;;;;;2.75;1.38;;;15.10;99.90;;;;;;4973279;28;20035;-36
2023/10/19 06:56:37;;;;;;;1.80;1.50;;;15.10;99.90;;;;;;4973364;28;20380;-38
2023/10/19 06:59:05;;;;;;;2.00;1.42;;;15.10;99.90;;;;;;4973417;28;20031;-38
2023/10/19 07:01:32;;;;;;;1.95;1.50;;;15.10;99.90;;;;;;4973367;28;20158;-38
2023/10/19 07:03:58;;;;;;;2.05;1.30;;;15.10;99.90;;;;;;4973376;28;20031;-37
2023/10/19 07:06:24;;;;;;;1.77;1.30;;;15.10;99.90;;;;;;4973155;28;20023;-38
2023/10/19 07:08:50;;;;;;;2.05;1.42;;;15.10;99.90;;;;;;4973201;28;20027;-37
2023/10/19 07:11:15;;;;;;;1.70;1.40;;;15.10;99.90;;;;;;4973188;28;20093;-38
2023/10/19 07:13:41;;;;;;;2.63;1.67;;;15.10;99.90;;;;;;4973003;28;20046;-37
2023/10/19 07:16:10;;;;;;;2.50;1.58;;;15.10;99.90;;;;;;4973261;28;20026;-38
2023/10/19 07:18:36;;;;;;;2.22;1.30;;;15.10;99.90;;;;;;4973194;28;20045;-38
2023/10/19 07:21:03;;;;;;;4.18;1.67;;;15.10;99.90;;;;;;4972972;28;20023;-37
2023/10/19 07:23:28;;;;;;;2.65;1.55;;;15.10;99.90;;;;;;4972893;28;20038;-38
2023/10/19 07:25:55;;;;;;;1.60;1.30;;;15.10;99.90;;;;;;4972930;28;20042;-38
2023/10/19 07:28:24;;;;;;;2.25;1.42;;;15.10;99.90;;;;;;4973152;28;20069;-37
2023/10/19 07:30:51;;;;;;;2.60;1.60;;;15.10;99.90;;;;;;4972938;28;20023;-38
2023/10/19 07:33:17;;;;;;;2.00;1.38;;;15.10;99.90;;;;;;4972786;28;20027;-38
2023/10/19 07:35:47;;;;;;;2.88;1.85;;;15.10;99.90;;;;;;4972650;28;20023;-38
2023/10/19 07:38:13;;;;;;;3.97;1.65;;;15.20;99.90;;;;;;4972792;28;20031;-37
2023/10/19 07:40:39;;;;;;;3.00;1.85;;;15.10;99.90;;;;;;4972004;28;20030;-37
2023/10/19 07:43:06;;;;;;;3.95;1.83;;;15.10;99.90;;;;;;4993655;23;20038;-39
2023/10/19 07:45:34;;;;;;;4.55;1.90;;;15.10;99.90;;;;;;4972221;28;20029;-36
2023/10/19 07:48:06;;;;;;;2.30;1.88;;;15.10;99.90;;;;;;4972525;28;20023;-37
2023/10/19 07:50:32;;;;;;;2.33;1.75;;;15.20;99.90;;;;;;4972821;28;20073;-37
2023/10/19 07:52:58;;;;;;;4.40;1.65;;;15.10;99.90;;;;;;4972562;28;20019;-38
2023/10/19 07:55:24;;;;;;;3.28;1.90;;;15.20;99.90;;;;;;4972409;28;20102;-35
2023/10/19 07:57:50;;;;;;;2.53;1.80;;;15.10;99.90;;;;;;4972503;28;20086;-35
2023/10/19 08:00:19;;;;;;;3.20;1.85;;;15.20;99.90;;;;;;4972590;28;20023;-35
2023/10/19 08:02:47;;;;;;;5.15;1.80;;;15.20;99.90;;;;;;4972442;28;20043;-38
2023/10/19 08:05:14;;;;;;;2.40;1.75;;;15.10;99.90;;;;;;4972356;28;20023;-38
2023/10/19 08:07:42;;;;;;;2.60;1.80;;;15.10;99.90;;;;;;4972349;28;20078;-38
2023/10/19 08:10:10;;;;;;;2.50;1.60;;;15.20;99.90;;;;;;4972558;28;20022;-35
2023/10/19 08:12:43;;;;;;;2.00;1.70;;;15.20;99.90;;;;;;4971151;28;20033;-38
2023/10/19 08:15:13;;;;;;;3.25;1.70;;;15.20;99.90;;;;;;4972304;28;20383;-39
2023/10/19 08:17:40;;;;;;;2.65;1.60;;;15.20;99.90;;;;;;4972244;28;20026;-41
2023/10/19 08:20:15;;;;;;;4.10;1.55;;;15.20;99.90;;;;;;4972373;28;20023;-39
2023/10/19 08:22:46;;;;;;;3.45;1.65;;;15.20;99.90;;;;;;4972457;28;20034;-36
2023/10/19 08:25:14;;;;;;;2.15;1.42;;;15.20;99.90;;;;;;4972291;28;20034;-36
2023/10/19 08:27:45;;;;;;;5.15;1.75;;;15.30;99.90;;;;;;4972275;28;20392;-36
2023/10/19 08:30:14;;;;;;;2.33;1.70;;;15.30;99.90;;;;;;4972250;28;20588;-36
2023/10/19 08:32:41;;;;;;;2.67;1.50;;;15.30;99.90;;;;;;4972205;28;20077;-39
2023/10/19 08:35:11;;;;;;;3.03;1.70;;;15.30;99.90;;;;;;4972131;28;20138;-37
2023/10/19 08:37:39;;;;;;;2.42;1.63;;;15.30;99.90;;;;;;4972120;28;20026;-37
2023/10/19 08:40:06;;;;;;;2.13;1.30;;;15.30;99.90;;;;;;4972298;28;20432;-38
2023/10/19 08:42:34;;;;;;;2.88;1.80;;;15.30;99.90;;;;;;4971906;28;20122;-37
2023/10/19 08:45:00;;;;;;;2.03;1.30;;;15.30;99.90;;;;;;4972158;28;20500;-36
2023/10/19 08:47:26;;;;;;;2.65;1.75;;;15.30;99.90;;;;;;4972103;28;20035;-35
2023/10/19 08:49:53;;;;;;;2.80;1.73;;;15.30;99.90;;;;;;4972147;28;20037;-35
2023/10/19 08:52:22;;;;;;;2.70;1.80;;;15.30;99.90;;;;;;4973944;28;20102;-35
2023/10/19 08:54:48;;;;;;;1.92;1.60;;;15.30;99.90;;;;;;4975578;28;20030;-36
2023/10/19 08:57:14;;;;;;;1.50;1.30;;;15.30;99.90;;;;;;4975525;28;20034;-38
2023/10/19 08:59:39;;;;;;;2.03;1.42;;;15.30;99.90;;;;;;4976199;28;20447;-35
2023/10/19 09:02:06;;;;;;;2.85;1.38;;;15.30;99.90;;;;;;4975537;28;20150;-38
2023/10/19 09:04:32;;;;;;;2.85;1.33;;;15.30;99.90;;;;;;4975536;28;20026;-38
2023/10/19 09:06:59;;;;;;;2.13;1.40;;;15.40;99.90;;;;;;4975266;28;20062;-37
2023/10/19 09:09:31;;;;;;;2.05;1.48;;;15.30;99.90;;;;;;4975452;28;20102;-39
2023/10/19 09:11:57;;;;;;;2.45;1.73;;;15.30;99.90;;;;;;4975561;28;20027;-39
2023/10/19 09:14:36;;;;;;;2.08;1.60;;;15.30;99.90;;;;;;4975312;28;20033;-35
2023/10/19 09:17:03;;;;;;;1.92;1.33;;;15.30;99.90;;;;;;4975089;28;20105;-39
2023/10/19 09:19:39;;;;;;;1.88;1.48;;;15.30;99.90;;;;;;4975257;28;20030;-36
2023/10/19 09:22:08;;;;;;;2.42;1.45;;;15.40;99.90;;;;;;4957898;28;20362;-37
2023/10/19 09:24:37;;;;;;;2.22;1.65;;;15.40;99.90;;;;;;4975335;28;20026;-35
2023/10/19 09:27:03;;;;;;;1.80;1.30;;;15.40;99.90;;;;;;4974956;28;20417;-37
2023/10/19 09:29:31;;;;;;;2.70;1.30;;;15.40;99.90;;;;;;4975119;28;20053;-36
2023/10/19 09:32:02;;;;;;;1.70;1.30;;;15.40;99.90;;;;;;4974973;28;20054;-35
2023/10/19 09:34:31;;;;;;;2.03;1.40;;;15.40;99.90;;;;;;4974789;28;20038;-35
2023/10/19 09:37:00;;;;;;;3.47;1.55;;;15.40;99.90;;;;;;4974753;28;20041;-36
2023/10/19 09:39:34;;;;;;;2.83;1.42;;;15.40;99.90;;;;;;4957499;28;20557;-35
2023/10/19 09:42:10;;;;;;;1.60;1.33;;;15.40;99.90;;;;;;4974701;28;20034;-36
2023/10/19 09:44:44;;;;;;;1.98;1.42;;;15.50;99.90;;;;;;4974900;28;20041;-36
2023/10/19 09:47:20;;;;;;;3.28;1.40;;;15.50;99.90;;;;;;4974609;28;20140;-38
2023/10/19 09:49:49;;;;;;;2.10;1.35;;;15.40;99.90;;;;;;4974787;28;20031;-39
2023/10/19 09:52:17;;;;;;;2.13;1.30;;;15.50;99.90;;;;;;4957197;28;20105;-37
2023/10/19 09:55:19;;;;;;;3.45;1.52;;;15.40;99.90;;;;;;4974440;28;20027;-39
2023/10/19 09:57:59;;;;;;;2.30;1.40;;;15.50;99.90;;;;;;4974484;28;20106;-39
2023/10/19 10:00:25;;;;;;;1.27;1.02;;;15.40;99.90;;;;;;4974566;28;20019;-39
2023/10/19 10:02:51;;;;;;;1.90;1.20;;;15.40;99.90;;;;;;4973622;28;20030;-39
2023/10/19 10:05:42;;;;;;;1.67;1.10;;;15.40;99.90;;;;;;4972876;28;20177;-43
2023/10/19 10:08:31;;;;;;;1.35;1.00;;;15.40;99.90;;;;;;4974366;28;20035;-39
2023/10/19 10:10:57;;;;;;;1.73;1.30;;;15.40;99.90;;;;;;4969066;28;20039;-41
2023/10/19 10:13:30;;;;;;;1.83;1.23;;;15.40;99.90;;;;;;4974136;28;20507;-39
2023/10/19 10:15:57;;;;;;;3.70;1.40;;;15.40;99.90;;;;;;4974201;28;20015;-39
2023/10/19 10:18:29;;;;;;;2.72;1.50;;;15.40;99.90;;;;;;4974108;28;20426;-39
2023/10/19 10:21:18;;;;;;;2.08;1.30;;;15.40;99.90;;;;;;4973897;28;20069;-41
2023/10/19 10:23:49;;;;;;;2.10;1.20;;;15.40;99.90;;;;;;4974136;28;20031;-40
2023/10/19 10:26:16;;;;;;;1.83;1.30;;;15.50;99.90;;;;;;4973881;28;20027;-39
2023/10/19 10:28:46;;;;;;;1.83;1.20;;;15.50;99.90;;;;;;4973922;28;20031;-39
2023/10/19 10:31:22;;;;;;;3.45;1.38;;;15.40;99.90;;;;;;4973973;28;20023;-39
2023/10/19 10:33:54;;;;;;;2.08;1.35;;;15.50;99.90;;;;;;4973728;28;20599;-39
2023/10/19 10:36:20;;;;;;;2.15;1.30;;;15.40;99.90;;;;;;4974047;28;20038;-39
2023/10/19 10:38:48;;;;;;;2.08;1.33;;;15.50;99.90;;;;;;4973740;28;20546;-39
2023/10/19 10:41:27;;;;;;;2.20;1.40;;;15.50;99.90;;;;;;4956322;28;20038;-41
2023/10/19 10:43:57;;;;;;;2.60;1.15;;;15.40;99.90;;;;;;4973566;28;20042;-38
2023/10/19 10:46:24;;;;;;;1.88;1.30;;;15.50;99.90;;;;;;4973517;28;20455;-38
2023/10/19 10:48:51;;;;;;;3.17;1.40;;;15.50;99.90;;;;;;4973678;28;20042;-39
2023/10/19 10:51:25;;;;;;;1.75;1.30;;;15.50;99.90;;;;;;4973696;28;20042;-38
2023/10/19 10:53:52;;;;;;;2.20;1.50;;;15.50;99.90;;;;;;4973529;28;20042;-39
2023/10/19 10:56:20;;;;;;;2.45;1.30;;;15.50;99.90;;;;;;4973598;28;20027;-40
2023/10/19 10:58:45;;;;;;;1.45;1.10;;;15.40;99.90;;;;;;4973446;28;20033;-39
2023/10/19 11:01:13;;;;;;;1.73;1.10;;;15.50;99.90;;;;;;4973407;28;20388;-41
2023/10/19 11:03:39;;;;;;;1.98;1.13;;;15.40;99.90;;;;;;4973256;28;20023;-39
2023/10/19 11:06:27;;;;;;;2.78;1.10;;;15.50;99.90;;;;;;4973164;28;20022;-37
2023/10/19 11:08:53;;;;;;;2.90;1.48;;;15.50;99.90;;;;;;4973207;28;20033;-38
2023/10/19 11:11:18;;;;;;;2.17;1.17;;;15.50;99.90;;;;;;4973157;28;20030;-36
2023/10/19 11:13:44;;;;;;;2.88;1.40;;;15.40;99.90;;;;;;4973156;28;20027;-37
2023/10/19 11:16:09;;;;;;;1.48;1.13;;;15.50;99.90;;;;;;4972828;28;20121;-38
2023/10/19 11:18:36;;;;;;;1.50;1.17;;;15.40;99.90;;;;;;4973082;28;20038;-37
2023/10/19 11:21:09;;;;;;;4.13;1.33;;;15.40;99.90;;;;;;4972916;28;20023;-37
2023/10/19 11:23:37;;;;;;;3.70;1.10;;;15.40;99.90;;;;;;4972954;28;20439;-37
2023/10/19 11:26:05;;;;;;;2.90;1.50;;;15.40;99.90;;;;;;4972890;28;20173;-36
2023/10/19 11:28:32;;;;;;;2.10;1.10;;;15.40;99.90;;;;;;4973025;28;20089;-37
2023/10/19 11:31:19;;;;;;;1.75;1.20;;;15.40;99.90;;;;;;4972971;28;20018;-38
2023/10/19 11:33:48;;;;;;;2.55;1.25;;;15.40;99.90;;;;;;4972624;28;20037;-37
2023/10/19 11:36:14;;;;;;;2.70;1.10;;;15.40;99.90;;;;;;4972949;28;20015;-37
2023/10/19 11:38:48;;;;;;;1.70;1.17;;;15.40;99.90;;;;;;4955397;28;20062;-38
2023/10/19 11:41:15;;;;;;;2.15;1.10;;;15.40;99.90;;;;;;4972819;28;20019;-36
2023/10/19 11:43:42;;;;;;;1.75;1.10;;;15.40;99.90;;;;;;4972447;28;20089;-38
2023/10/19 11:46:08;;;;;;;1.98;1.33;;;15.40;99.90;;;;;;4972560;28;20038;-37
2023/10/19 11:48:35;;;;;;;1.25;0.88;;;15.50;99.90;;;;;;4972659;28;20038;-38
2023/10/19 11:51:03;;;;;;;2.00;1.10;;;15.40;99.90;;;;;;4972890;28;20078;-37
2023/10/19 11:53:34;;;;;;;1.48;1.10;;;15.50;99.90;;;;;;4972810;28;20031;-37
2023/10/19 11:56:07;;;;;;;2.83;1.20;;;15.50;99.90;;;;;;4972436;28;20023;-37
2023/10/19 11:58:41;;;;;;;2.17;1.17;;;15.50;99.90;;;;;;4972568;28;20092;-38
2023/10/19 12:01:16;;;;;;;1.58;1.15;;;15.50;99.90;;;;;;4972556;28;20023;-37
2023/10/19 12:03:45;;;;;;;1.45;0.90;;;15.50;99.90;;;;;;4972529;28;20054;-37
2023/10/19 12:06:12;;;;;;;2.83;1.33;;;15.40;99.90;;;;;;4972338;28;20483;-38
2023/10/19 12:08:39;;;;;;;1.48;1.13;;;15.40;99.90;;;;;;4972480;28;20030;-36
2023/10/19 12:11:14;;;;;;;1.75;1.30;;;15.40;99.90;;;;;;4972342;28;20050;-35
2023/10/19 12:13:41;;;;;;;2.50;1.23;;;15.40;99.90;;;;;;4972346;28;20027;-35
2023/10/19 12:16:07;;;;;;;1.55;1.15;;;15.40;99.90;;;;;;4972257;28;20019;-39
2023/10/19 12:18:32;;;;;;;1.83;1.15;;;15.40;99.90;;;;;;4972454;28;20523;-35
2023/10/19 12:21:00;;;;;;;1.48;1.10;;;15.40;99.90;;;;;;4972378;28;20469;-35
2023/10/19 12:23:26;;;;;;;1.77;1.13;;;15.40;99.90;;;;;;4972162;28;20023;-35
2023/10/19 12:25:52;;;;;;;2.08;1.10;;;15.40;99.90;;;;;;4972415;28;20022;-35
2023/10/19 12:28:20;;;;;;;1.63;1.20;;;15.40;99.90;;;;;;4975974;28;20031;-37
2023/10/19 12:30:47;;;;;;;1.30;1.05;;;15.40;99.90;;;;;;4976219;28;20030;-38
2023/10/19 12:33:12;;;;;;;1.55;1.17;;;15.50;99.90;;;;;;4975987;28;20042;-38
2023/10/19 12:35:44;;;;;;;1.95;1.17;;;15.40;99.90;;;;;;4975933;28;20034;-38
2023/10/19 12:38:15;;;;;;;1.73;0.88;;;15.50;99.90;;;;;;4975900;28;20042;-38
2023/10/19 12:40:42;;;;;;;1.30;0.98;;;15.40;99.90;;;;;;4976026;28;20150;-38
2023/10/19 12:43:10;;;;;;;1.38;0.85;;;15.40;99.90;;;;;;4975832;28;20031;-38
2023/10/19 12:45:39;;;;;;;1.75;1.25;;;15.40;99.90;;;;;;4975893;28;20429;-38
2023/10/19 12:48:05;;;;;;;2.13;1.30;;;15.40;99.90;;;;;;4975732;28;20035;-39
2023/10/19 12:50:32;;;;;;;3.15;1.10;;;15.40;99.90;;;;;;4975698;28;20117;-38
2023/10/19 12:52:57;;;;;;;1.85;1.20;;;15.50;99.90;;;;;;4975711;28;20106;-38
2023/10/19 12:55:26;;;;;;;2.35;1.00;;;15.50;99.90;;;;;;4975521;28;20110;-38
2023/10/19 12:57:56;;;;;;;1.38;0.90;;;15.40;99.90;;;;;;4975593;28;20050;-38
2023/10/19 13:00:26;;;;;;;1.77;0.88;;;15.50;99.90;;;;;;4975523;28;20258;-38
2023/10/19 13:03:01;;;;;;;1.67;1.00;;;15.40;99.90;;;;;;4975393;28;20499;-38
2023/10/19 13:05:27;;;;;;;1.30;0.95;;;15.40;99.90;;;;;;4975934;28;20034;-38
2023/10/19 13:07:58;;;;;;;1.00;0.80;;;15.50;99.90;;;;;;4975416;28;20476;-38
2023/10/19 13:10:28;;;;;;;1.13;0.90;;;15.50;99.90;;;;;;4975539;28;20065;-38
2023/10/19 13:12:53;;;;;;;1.52;1.00;;;15.40;99.90;;;;;;4975400;28;20039;-39
2023/10/19 13:15:20;;;;;;;1.65;1.10;;;15.50;99.90;;;;;;4975101;28;20030;-41
2023/10/19 13:17:48;;;;;;;1.50;1.00;;;15.50;99.90;;;;;;4975353;28;20026;-38
2023/10/19 13:20:17;;;;;;;1.60;1.00;;;15.50;99.90;;;;;;4975256;28;20038;-38